createdAt,value
2017-07-06T00:00:35.592Z,68.63
2017-07-06T00:01:37.459Z,68.53
2017-07-06T00:02:39.333Z,68.91
2017-07-06T00:03:53.479Z,68.82
2017-07-06T00:04:55.379Z,68.91
2017-07-06T00:05:57.272Z,68.82
2017-07-06T00:06:59.162Z,69.20
2017-07-06T00:08:00.970Z,68.82
2017-07-06T00:09:02.798Z,68.88
2017-07-06T00:10:04.671Z,68.59
2017-07-06T00:11:06.566Z,68.88
2017-07-06T00:12:08.442Z,68.79
2017-07-06T00:13:22.610Z,69.11
2017-07-06T00:14:24.481Z,68.50
2017-07-06T00:15:26.377Z,69.11
2017-07-06T00:16:28.250Z,68.98
2017-07-06T00:17:30.079Z,68.79
2017-07-06T00:18:31.886Z,68.88
2017-07-06T00:19:33.759Z,68.79
2017-07-06T00:20:35.631Z,69.17
2017-07-06T00:21:37.527Z,68.98
2017-07-06T00:22:51.672Z,69.26
2017-07-06T00:23:53.575Z,69.36
2017-07-06T00:24:55.465Z,69.74
2017-07-06T00:25:57.333Z,69.36
2017-07-06T00:26:59.144Z,69.26
2017-07-06T00:28:00.976Z,69.65
2017-07-06T00:29:02.872Z,70.13
2017-07-06T00:30:04.770Z,69.74
2017-07-06T00:31:06.664Z,70.13
2017-07-06T00:32:20.808Z,70.13
2017-07-06T00:33:22.686Z,70.03
2017-07-06T00:34:24.584Z,69.93
2017-07-06T00:35:26.480Z,69.84
2017-07-06T00:36:28.316Z,70.13
2017-07-06T00:37:30.143Z,70.03
2017-07-06T00:38:32.016Z,70.23
2017-07-06T00:39:33.913Z,70.42
2017-07-06T00:40:35.805Z,70.00
2017-07-06T00:41:49.952Z,70.19
2017-07-06T00:42:51.846Z,70.48
2017-07-06T00:43:53.744Z,70.67
2017-07-06T00:44:55.637Z,70.76
2017-07-06T00:45:57.472Z,70.29
2017-07-06T00:46:59.311Z,70.48
2017-07-06T00:48:01.195Z,70.86
2017-07-06T00:49:03.069Z,70.96
2017-07-06T00:50:04.963Z,71.34
2017-07-06T00:51:19.111Z,71.15
2017-07-06T00:52:21.010Z,71.34
2017-07-06T00:53:22.907Z,71.44
2017-07-06T00:54:24.785Z,71.72
2017-07-06T00:55:26.613Z,71.63
2017-07-06T00:56:28.418Z,71.82
2017-07-06T00:57:30.313Z,71.44
2017-07-06T00:58:32.183Z,71.53
2017-07-06T00:59:34.078Z,71.15
2017-07-06T01:00:48.244Z,71.34
2017-07-06T01:01:50.148Z,71.34
2017-07-06T01:02:52.038Z,71.34
2017-07-06T01:03:53.932Z,70.96
2017-07-06T01:04:55.732Z,70.96
2017-07-06T01:05:57.539Z,71.05
2017-07-06T01:06:59.412Z,71.34
2017-07-06T01:08:01.308Z,71.34
2017-07-06T01:09:03.177Z,71.53
2017-07-06T01:10:17.347Z,71.63
2017-07-06T01:11:19.241Z,71.50
2017-07-06T01:12:21.132Z,71.40
2017-07-06T01:13:23.007Z,71.50
2017-07-06T01:14:24.840Z,71.44
2017-07-06T01:15:26.648Z,71.63
2017-07-06T01:16:28.521Z,71.44
2017-07-06T01:17:30.395Z,71.50
2017-07-06T01:18:32.293Z,71.59
2017-07-06T01:19:46.435Z,71.78
2017-07-06T01:20:48.330Z,71.59
2017-07-06T01:21:50.205Z,71.88
2017-07-06T01:22:52.102Z,71.59
2017-07-06T01:23:53.937Z,72.17
2017-07-06T01:24:55.735Z,72.07
2017-07-06T01:25:57.611Z,72.55
2017-07-06T01:26:59.486Z,72.27
2017-07-06T01:28:01.376Z,72.30
2017-07-06T01:29:15.521Z,72.11
2017-07-06T01:30:17.390Z,72.07
2017-07-06T01:31:19.263Z,72.07
2017-07-06T01:32:21.153Z,72.17
2017-07-06T01:33:22.966Z,72.84
2017-07-06T01:34:24.798Z,72.27
2017-07-06T01:35:26.690Z,72.27
2017-07-06T01:36:28.558Z,71.98
2017-07-06T01:37:30.436Z,71.78
2017-07-06T01:38:44.609Z,72.27
2017-07-06T01:39:46.503Z,71.78
2017-07-06T01:40:48.374Z,72.17
2017-07-06T01:41:50.247Z,72.07
2017-07-06T01:42:52.059Z,71.98
2017-07-06T01:43:53.887Z,72.45
2017-07-06T01:44:55.757Z,71.98
2017-07-06T01:45:57.626Z,72.17
2017-07-06T01:46:59.526Z,71.88
2017-07-06T01:48:13.699Z,71.75
2017-07-06T01:49:15.596Z,72.23
2017-07-06T01:50:17.483Z,72.07
2017-07-06T01:51:19.402Z,71.98
2017-07-06T01:52:21.238Z,72.27
2017-07-06T01:53:23.041Z,71.94
2017-07-06T01:54:24.918Z,72.03
2017-07-06T01:55:26.819Z,72.13
2017-07-06T01:56:28.704Z,72.42
2017-07-06T01:57:42.849Z,72.42
2017-07-06T01:58:44.747Z,72.32
2017-07-06T01:59:46.635Z,72.80
2017-07-06T02:00:48.512Z,72.61
2017-07-06T02:01:50.345Z,73.57
2017-07-06T02:02:52.150Z,73.19
2017-07-06T02:03:54.024Z,73.66
2017-07-06T02:04:55.922Z,73.38
2017-07-06T02:05:57.793Z,73.38
2017-07-06T02:07:11.960Z,73.28
2017-07-06T02:08:13.836Z,73.38
2017-07-06T02:09:15.736Z,72.90
2017-07-06T02:10:17.629Z,72.61
2017-07-06T02:11:19.467Z,72.99
2017-07-06T02:12:21.270Z,73.28
2017-07-06T02:13:23.167Z,73.19
2017-07-06T02:14:25.059Z,72.99
2017-07-06T02:15:26.926Z,72.90
2017-07-06T02:16:41.074Z,72.61
2017-07-06T02:17:42.970Z,73.09
2017-07-06T02:18:44.869Z,72.90
2017-07-06T02:19:46.764Z,73.09
2017-07-06T02:20:48.595Z,72.99
2017-07-06T02:21:50.404Z,72.61
2017-07-06T02:22:52.307Z,72.71
2017-07-06T02:23:54.201Z,72.13
2017-07-06T02:24:56.103Z,72.03
2017-07-06T02:26:10.248Z,72.13
2017-07-06T02:27:12.117Z,72.52
2017-07-06T02:28:13.986Z,72.42
2017-07-06T02:29:15.882Z,72.42
2017-07-06T02:30:17.689Z,72.23
2017-07-06T02:31:19.514Z,72.13
2017-07-06T02:32:21.391Z,72.61
2017-07-06T02:33:23.259Z,72.32
2017-07-06T02:34:25.131Z,72.61
2017-07-06T02:35:39.309Z,72.42
2017-07-06T02:36:41.206Z,72.23
2017-07-06T02:37:43.149Z,72.42
2017-07-06T02:38:45.042Z,72.42
2017-07-06T02:39:46.907Z,72.42
2017-07-06T02:40:48.720Z,72.03
2017-07-06T02:41:50.601Z,72.23
2017-07-06T02:42:52.438Z,72.32
2017-07-06T02:43:54.267Z,72.13
2017-07-06T02:45:08.439Z,72.42
2017-07-06T02:46:10.336Z,72.23
2017-07-06T02:47:12.236Z,72.42
2017-07-06T02:48:14.131Z,72.42
2017-07-06T02:49:15.949Z,72.42
2017-07-06T02:50:17.782Z,72.90
2017-07-06T02:51:19.657Z,72.99
2017-07-06T02:52:21.554Z,72.71
2017-07-06T02:53:23.422Z,73.19
2017-07-06T02:54:37.576Z,72.80
2017-07-06T02:55:39.474Z,72.71
2017-07-06T02:56:41.369Z,72.61
2017-07-06T02:57:43.267Z,72.52
2017-07-06T02:58:45.105Z,72.23
2017-07-06T02:59:46.915Z,72.13
2017-07-06T03:00:48.813Z,72.32
2017-07-06T03:01:50.710Z,72.71
2017-07-06T03:02:52.611Z,72.42
2017-07-06T03:04:06.785Z,71.84
2017-07-06T03:05:08.678Z,71.94
2017-07-06T03:06:10.555Z,71.66
2017-07-06T03:07:12.453Z,71.84
2017-07-06T03:08:14.291Z,71.46
2017-07-06T03:09:16.124Z,71.27
2017-07-06T03:10:17.999Z,71.17
2017-07-06T03:11:19.887Z,70.89
2017-07-06T03:12:21.785Z,71.08
2017-07-06T03:13:35.927Z,71.50
2017-07-06T03:14:37.799Z,70.89
2017-07-06T03:15:39.669Z,71.27
2017-07-06T03:16:41.546Z,70.98
2017-07-06T03:17:43.356Z,70.60
2017-07-06T03:18:45.193Z,70.98
2017-07-06T03:19:47.090Z,70.50
2017-07-06T03:20:48.966Z,70.64
2017-07-06T03:21:50.859Z,70.73
2017-07-06T03:23:05.033Z,69.58
2017-07-06T03:24:06.930Z,69.39
2017-07-06T03:25:08.809Z,68.81
2017-07-06T03:26:10.707Z,68.46
2017-07-06T03:27:12.548Z,67.99
2017-07-06T03:28:14.385Z,67.50
2017-07-06T03:29:16.263Z,67.22
2017-07-06T03:30:18.157Z,66.67
2017-07-06T03:31:20.060Z,66.29
2017-07-06T03:32:34.238Z,66.10
2017-07-06T03:33:36.104Z,65.33
2017-07-06T03:34:37.976Z,64.59
2017-07-06T03:35:39.858Z,63.92
2017-07-06T03:36:41.696Z,63.86
2017-07-06T03:37:43.508Z,63.57
2017-07-06T03:38:45.387Z,62.61
2017-07-06T03:39:47.284Z,62.07
2017-07-06T03:40:49.179Z,61.68
2017-07-06T03:42:03.383Z,61.68
2017-07-06T03:43:05.285Z,60.94
2017-07-06T03:44:07.163Z,60.75
2017-07-06T03:45:09.037Z,60.08
2017-07-06T03:46:10.851Z,59.79
2017-07-06T03:47:12.666Z,59.24
2017-07-06T03:48:14.566Z,58.57
2017-07-06T03:49:16.445Z,58.28
2017-07-06T03:50:18.344Z,58.02
2017-07-06T03:51:32.494Z,57.73
2017-07-06T03:52:34.392Z,57.37
2017-07-06T03:53:36.293Z,56.70
2017-07-06T03:54:38.196Z,56.41
2017-07-06T03:55:40.037Z,56.03
2017-07-06T03:56:41.853Z,55.65
2017-07-06T03:57:43.757Z,55.09
2017-07-06T03:58:45.653Z,55.09
2017-07-06T03:59:47.524Z,55.00
2017-07-06T04:01:01.676Z,54.61
2017-07-06T04:02:03.620Z,54.42
2017-07-06T04:03:05.468Z,54.13
2017-07-06T04:04:07.343Z,53.87
2017-07-06T04:05:09.187Z,54.25
2017-07-06T04:06:10.999Z,53.87
2017-07-06T04:07:12.902Z,53.48
2017-07-06T04:08:14.804Z,52.33
2017-07-06T04:09:16.695Z,52.45
2017-07-06T04:10:30.851Z,51.58
2017-07-06T04:11:32.726Z,51.58
2017-07-06T04:12:34.627Z,51.61
2017-07-06T04:13:36.509Z,50.74
2017-07-06T04:14:38.351Z,50.74
2017-07-06T04:15:40.165Z,50.45
2017-07-06T04:16:42.066Z,50.35
2017-07-06T04:17:43.966Z,50.09
2017-07-06T04:18:45.869Z,49.90
2017-07-06T04:20:00.048Z,49.41
2017-07-06T04:21:01.952Z,48.95
2017-07-06T04:22:03.860Z,48.28
2017-07-06T04:23:05.762Z,47.81
2017-07-06T04:24:07.601Z,48.01
2017-07-06T04:25:09.415Z,48.01
2017-07-06T04:26:11.293Z,47.33
2017-07-06T04:27:13.196Z,47.26
2017-07-06T04:28:15.094Z,46.97
2017-07-06T04:29:29.331Z,46.32
2017-07-06T04:30:31.232Z,46.03
2017-07-06T04:31:33.133Z,45.74
2017-07-06T04:32:35.013Z,45.35
2017-07-06T04:33:36.855Z,45.16
2017-07-06T04:34:38.675Z,45.08
2017-07-06T04:35:40.581Z,44.89
2017-07-06T04:36:42.480Z,44.50
2017-07-06T04:37:44.387Z,44.21
2017-07-06T04:38:58.587Z,44.13
2017-07-06T04:40:00.501Z,43.85
2017-07-06T04:41:02.388Z,43.85
2017-07-06T04:42:04.287Z,43.46
2017-07-06T04:43:06.115Z,43.46
2017-07-06T04:44:07.956Z,42.80
2017-07-06T04:45:09.841Z,42.80
2017-07-06T04:46:11.751Z,42.61
2017-07-06T04:47:13.654Z,42.24
2017-07-06T04:48:27.837Z,42.24
2017-07-06T04:49:29.743Z,41.78
2017-07-06T04:50:31.649Z,41.68
2017-07-06T04:51:33.556Z,41.20
2017-07-06T04:52:35.405Z,40.83
2017-07-06T04:53:37.269Z,40.54
2017-07-06T04:54:39.121Z,40.54
2017-07-06T04:55:41.023Z,39.78
2017-07-06T04:56:42.898Z,40.26
2017-07-06T04:57:57.054Z,40.08
2017-07-06T04:58:58.960Z,39.80
2017-07-06T05:00:00.860Z,39.78
2017-07-06T05:01:02.744Z,39.51
2017-07-06T05:02:04.562Z,39.03
2017-07-06T05:03:06.386Z,39.22
2017-07-06T05:04:08.283Z,38.73
2017-07-06T05:05:10.189Z,38.73
2017-07-06T05:06:12.095Z,38.54
2017-07-06T05:07:26.244Z,38.37
2017-07-06T05:08:28.124Z,38.27
2017-07-06T05:09:30.003Z,37.98
2017-07-06T05:10:31.886Z,38.07
2017-07-06T05:11:33.700Z,38.17
2017-07-06T05:12:35.519Z,37.78
2017-07-06T05:13:37.407Z,37.90
2017-07-06T05:14:39.312Z,37.41
2017-07-06T05:15:41.217Z,37.32
2017-07-06T05:16:55.375Z,37.12
2017-07-06T05:17:57.285Z,36.93
2017-07-06T05:18:59.197Z,36.75
2017-07-06T05:20:01.101Z,36.94
2017-07-06T05:21:02.918Z,36.65
2017-07-06T05:22:04.741Z,36.85
2017-07-06T05:23:06.645Z,36.75
2017-07-06T05:24:08.531Z,36.55
2017-07-06T05:25:10.440Z,36.75
2017-07-06T05:26:24.620Z,36.65
2017-07-06T05:27:26.523Z,36.85
2017-07-06T05:28:28.408Z,37.04
2017-07-06T05:29:30.311Z,37.04
2017-07-06T05:30:32.155Z,36.94
2017-07-06T05:31:33.999Z,36.85
2017-07-06T05:32:35.898Z,37.14
2017-07-06T05:33:37.797Z,36.73
2017-07-06T05:34:39.672Z,37.32
2017-07-06T05:35:53.835Z,37.90
2017-07-06T05:36:55.742Z,37.99
2017-07-06T05:37:57.653Z,38.29
2017-07-06T05:38:59.557Z,38.37
2017-07-06T05:40:01.406Z,38.75
2017-07-06T05:41:03.243Z,38.85
2017-07-06T05:42:05.130Z,39.14
2017-07-06T05:43:07.025Z,39.24
2017-07-06T05:44:08.902Z,39.03
2017-07-06T05:45:23.061Z,39.70
2017-07-06T05:46:24.959Z,39.98
2017-07-06T05:47:26.844Z,40.05
2017-07-06T05:48:28.719Z,40.54
2017-07-06T05:49:30.562Z,40.91
2017-07-06T05:50:32.396Z,41.00
2017-07-06T05:51:34.274Z,41.58
2017-07-06T05:52:36.154Z,42.07
2017-07-06T05:53:38.051Z,42.14
2017-07-06T05:54:52.205Z,42.92
2017-07-06T05:55:54.083Z,44.27
2017-07-06T05:56:55.983Z,47.19
2017-07-06T05:57:57.898Z,47.36
2017-07-06T05:58:59.706Z,47.94
2017-07-06T06:00:01.524Z,48.32
2017-07-06T06:01:03.404Z,48.59
2017-07-06T06:02:05.286Z,48.88
2017-07-06T06:03:07.193Z,49.56
2017-07-06T06:04:21.372Z,50.52
2017-07-06T06:05:23.279Z,50.79
2017-07-06T06:06:25.179Z,51.47
2017-07-06T06:07:27.060Z,51.76
2017-07-06T06:08:28.905Z,52.02
2017-07-06T06:09:30.716Z,52.80
2017-07-06T06:10:32.595Z,53.74
2017-07-06T06:11:34.494Z,54.29
2017-07-06T06:12:36.370Z,55.07
2017-07-06T06:13:50.526Z,55.74
2017-07-06T06:14:52.423Z,55.55
2017-07-06T06:15:54.304Z,55.55
2017-07-06T06:16:56.180Z,55.26
2017-07-06T06:17:58.003Z,54.87
2017-07-06T06:18:59.994Z,54.39
2017-07-06T06:20:01.873Z,54.00
2017-07-06T06:21:03.753Z,54.00
2017-07-06T06:22:05.660Z,54.39
2017-07-06T06:23:19.874Z,55.07
2017-07-06T06:24:21.791Z,54.97
2017-07-06T06:25:23.666Z,55.07
2017-07-06T06:26:25.547Z,54.19
2017-07-06T06:27:27.393Z,53.81
2017-07-06T06:28:29.230Z,54.19
2017-07-06T06:29:31.111Z,54.39
2017-07-06T06:30:33.086Z,54.49
2017-07-06T06:31:34.976Z,54.39
2017-07-06T06:32:49.129Z,54.39
2017-07-06T06:33:51.031Z,54.22
2017-07-06T06:34:52.936Z,54.03
2017-07-06T06:35:54.841Z,53.38
2017-07-06T06:36:56.684Z,53.09
2017-07-06T06:37:58.498Z,52.12
2017-07-06T06:39:00.378Z,51.73
2017-07-06T06:40:02.257Z,51.25
2017-07-06T06:41:04.133Z,51.44
2017-07-06T06:42:18.287Z,50.76
2017-07-06T06:43:20.163Z,50.70
2017-07-06T06:44:22.046Z,50.89
2017-07-06T06:45:23.949Z,50.24
2017-07-06T06:46:25.791Z,49.65
2017-07-06T06:47:27.631Z,48.81
2017-07-06T06:48:29.513Z,47.94
2017-07-06T06:49:31.406Z,47.86
2017-07-06T06:50:33.289Z,47.09
2017-07-06T06:51:47.473Z,46.33
2017-07-06T06:52:49.379Z,45.95
2017-07-06T06:53:51.283Z,45.29
2017-07-06T06:54:53.185Z,45.27
2017-07-06T06:55:55.012Z,45.07
2017-07-06T06:56:56.852Z,44.78
2017-07-06T06:57:58.759Z,44.30
2017-07-06T06:59:00.634Z,44.10
2017-07-06T07:00:02.511Z,44.01
2017-07-06T07:01:16.669Z,43.74
2017-07-06T07:02:18.577Z,43.45
2017-07-06T07:03:20.472Z,43.47
2017-07-06T07:04:22.353Z,43.35
2017-07-06T07:05:24.173Z,43.35
2017-07-06T07:06:26.018Z,43.91
2017-07-06T07:07:27.896Z,43.84
2017-07-06T07:08:29.804Z,43.35
2017-07-06T07:09:31.707Z,42.48
2017-07-06T07:10:45.870Z,42.67
2017-07-06T07:11:47.749Z,42.29
2017-07-06T07:12:49.631Z,41.61
2017-07-06T07:13:51.541Z,41.33
2017-07-06T07:14:53.385Z,41.14
2017-07-06T07:15:55.228Z,40.92
2017-07-06T07:16:57.108Z,41.02
2017-07-06T07:17:59.008Z,41.31
2017-07-06T07:19:00.915Z,41.31
2017-07-06T07:20:15.100Z,41.12
2017-07-06T07:21:17.004Z,41.31
2017-07-06T07:22:18.908Z,41.22
2017-07-06T07:23:20.814Z,41.61
2017-07-06T07:24:22.665Z,42.40
2017-07-06T07:25:24.510Z,42.02
2017-07-06T07:26:26.413Z,42.11
2017-07-06T07:27:28.311Z,41.72
2017-07-06T07:28:30.200Z,41.33
2017-07-06T07:29:44.429Z,42.21
2017-07-06T07:30:46.309Z,42.40
2017-07-06T07:31:48.194Z,41.61
2017-07-06T07:32:50.106Z,42.57
2017-07-06T07:33:51.947Z,42.29
2017-07-06T07:34:53.773Z,41.51
2017-07-06T07:35:55.677Z,41.49
2017-07-06T07:36:57.580Z,42.24
2017-07-06T07:37:59.456Z,42.82
2017-07-06T07:39:13.641Z,43.68
2017-07-06T07:40:15.539Z,44.45
2017-07-06T07:41:17.423Z,44.26
2017-07-06T07:42:19.328Z,44.26
2017-07-06T07:43:21.151Z,44.62
2017-07-06T07:44:22.994Z,45.01
2017-07-06T07:45:24.903Z,45.10
2017-07-06T07:46:26.777Z,44.91
2017-07-06T07:47:28.681Z,45.01
2017-07-06T07:48:42.866Z,44.54
2017-07-06T07:49:44.763Z,44.16
2017-07-06T07:50:46.646Z,44.18
2017-07-06T07:51:48.555Z,43.89
2017-07-06T07:52:50.395Z,43.62
2017-07-06T07:53:52.214Z,43.45
2017-07-06T07:54:54.131Z,43.54
2017-07-06T07:55:56.034Z,42.60
2017-07-06T07:56:57.952Z,42.40
2017-07-06T07:58:12.132Z,41.45
2017-07-06T07:59:14.050Z,41.36
2017-07-06T08:00:15.978Z,41.26
2017-07-06T08:01:17.900Z,41.36
2017-07-06T08:02:19.778Z,41.06
2017-07-06T08:03:21.653Z,40.48
2017-07-06T08:04:23.574Z,40.89
2017-07-06T08:05:25.506Z,41.08
2017-07-06T08:06:27.441Z,41.08
2017-07-06T08:07:41.675Z,40.60
2017-07-06T08:08:43.578Z,40.87
2017-07-06T08:09:45.500Z,41.16
2017-07-06T08:10:47.426Z,41.45
2017-07-06T08:11:49.312Z,41.45
2017-07-06T08:12:51.201Z,41.45
2017-07-06T08:13:53.112Z,41.53
2017-07-06T08:14:55.006Z,42.11
2017-07-06T08:15:56.930Z,43.47
2017-07-06T08:17:11.152Z,43.93
2017-07-06T08:18:13.077Z,43.93
2017-07-06T08:19:14.981Z,44.68
2017-07-06T08:20:16.873Z,45.34
2017-07-06T08:21:18.723Z,46.41
2017-07-06T08:22:20.562Z,46.80
2017-07-06T08:23:22.469Z,46.14
2017-07-06T08:24:24.373Z,45.85
2017-07-06T08:25:26.297Z,45.68
2017-07-06T08:26:40.505Z,45.58
2017-07-06T08:27:42.409Z,46.45
2017-07-06T08:28:44.314Z,45.39
2017-07-06T08:29:46.225Z,44.98
2017-07-06T08:30:48.040Z,45.56
2017-07-06T08:31:49.881Z,45.75
2017-07-06T08:32:51.784Z,46.26
2017-07-06T08:33:53.662Z,45.87
2017-07-06T08:34:55.553Z,45.39
2017-07-06T08:36:09.742Z,45.29
2017-07-06T08:37:11.623Z,45.21
2017-07-06T08:38:13.524Z,43.93
2017-07-06T08:39:15.409Z,44.30
2017-07-06T08:40:17.253Z,45.37
2017-07-06T08:41:19.094Z,45.75
2017-07-06T08:42:21.024Z,45.27
2017-07-06T08:43:22.934Z,45.27
2017-07-06T08:44:24.813Z,44.90
2017-07-06T08:45:38.997Z,45.20
2017-07-06T08:46:40.898Z,43.76
2017-07-06T08:47:42.800Z,43.47
2017-07-06T08:48:44.680Z,42.99
2017-07-06T08:49:46.506Z,42.71
2017-07-06T08:50:48.346Z,42.43
2017-07-06T08:51:50.226Z,42.03
2017-07-06T08:52:52.127Z,41.94
2017-07-06T08:53:54.009Z,42.13
2017-07-06T08:55:08.170Z,42.23
2017-07-06T08:56:10.043Z,42.44
2017-07-06T08:57:11.920Z,41.67
2017-07-06T08:58:13.808Z,41.36
2017-07-06T08:59:15.655Z,42.40
2017-07-06T09:00:17.496Z,42.11
2017-07-06T09:01:19.400Z,42.57
2017-07-06T09:02:21.302Z,43.64
2017-07-06T09:03:23.205Z,43.57
2017-07-06T09:04:37.368Z,43.68
2017-07-06T09:05:39.278Z,42.91
2017-07-06T09:06:41.180Z,42.74
2017-07-06T09:07:43.083Z,42.35
2017-07-06T09:08:44.924Z,41.88
2017-07-06T09:09:46.746Z,42.27
2017-07-06T09:10:48.678Z,41.88
2017-07-06T09:11:50.562Z,41.59
2017-07-06T09:12:52.444Z,41.18
2017-07-06T09:14:06.605Z,41.08
2017-07-06T09:15:08.541Z,41.28
2017-07-06T09:16:10.466Z,41.16
2017-07-06T09:17:12.404Z,42.02
2017-07-06T09:18:14.268Z,42.52
2017-07-06T09:19:16.137Z,41.53
2017-07-06T09:20:18.045Z,41.43
2017-07-06T09:21:19.941Z,41.33
2017-07-06T09:22:21.848Z,41.72
2017-07-06T09:23:36.070Z,41.74
2017-07-06T09:24:37.969Z,41.64
2017-07-06T09:25:39.898Z,40.97
2017-07-06T09:26:41.789Z,41.36
2017-07-06T09:27:43.631Z,41.84
2017-07-06T09:28:45.495Z,41.64
2017-07-06T09:29:47.426Z,41.45
2017-07-06T09:30:49.358Z,42.61
2017-07-06T09:31:51.267Z,41.64
2017-07-06T09:33:05.454Z,41.74
2017-07-06T09:34:07.334Z,41.28
2017-07-06T09:35:09.239Z,41.32
2017-07-06T09:36:11.155Z,41.13
2017-07-06T09:37:13.005Z,39.88
2017-07-06T09:38:14.845Z,39.76
2017-07-06T09:39:16.728Z,39.28
2017-07-06T09:40:18.636Z,38.57
2017-07-06T09:41:20.544Z,39.06
2017-07-06T09:42:34.730Z,39.16
2017-07-06T09:43:36.619Z,39.94
2017-07-06T09:44:38.541Z,39.94
2017-07-06T09:45:40.444Z,40.72
2017-07-06T09:46:42.269Z,39.92
2017-07-06T09:47:44.138Z,39.92
2017-07-06T09:48:46.098Z,40.13
2017-07-06T09:49:48.055Z,40.60
2017-07-06T09:50:50.014Z,40.50
2017-07-06T09:52:04.226Z,40.79
2017-07-06T09:53:06.151Z,40.99
2017-07-06T09:54:08.030Z,41.20
2017-07-06T09:55:09.921Z,40.62
2017-07-06T09:56:11.777Z,40.03
2017-07-06T09:57:13.630Z,39.96
2017-07-06T09:58:15.555Z,39.78
2017-07-06T09:59:17.465Z,38.70
2017-07-06T10:00:19.391Z,39.18
2017-07-06T10:01:33.579Z,39.84
2017-07-06T10:02:35.484Z,40.23
2017-07-06T10:03:37.440Z,40.01
2017-07-06T10:04:39.378Z,40.97
2017-07-06T10:05:41.246Z,41.55
2017-07-06T10:06:43.121Z,41.28
2017-07-06T10:07:45.064Z,40.99
2017-07-06T10:08:46.970Z,40.41
2017-07-06T10:09:48.895Z,39.92
2017-07-06T10:11:03.113Z,39.92
2017-07-06T10:12:05.015Z,40.21
2017-07-06T10:13:06.909Z,40.79
2017-07-06T10:14:08.823Z,41.08
2017-07-06T10:15:10.886Z,41.08
2017-07-06T10:16:12.716Z,40.42
2017-07-06T10:17:14.638Z,40.06
2017-07-06T10:18:16.584Z,39.45
2017-07-06T10:19:18.524Z,39.45
2017-07-06T10:20:32.726Z,39.94
2017-07-06T10:21:34.672Z,39.94
2017-07-06T10:22:36.596Z,39.67
2017-07-06T10:23:38.501Z,38.42
2017-07-06T10:24:40.329Z,37.93
2017-07-06T10:25:42.148Z,38.42
2017-07-06T10:26:44.052Z,38.13
2017-07-06T10:27:45.927Z,37.27
2017-07-06T10:28:47.810Z,37.08
2017-07-06T10:30:01.969Z,37.54
2017-07-06T10:31:03.854Z,37.93
2017-07-06T10:32:05.765Z,38.11
2017-07-06T10:33:07.668Z,38.40
2017-07-06T10:34:09.498Z,39.65
2017-07-06T10:35:11.340Z,39.65
2017-07-06T10:36:13.245Z,39.47
2017-07-06T10:37:15.125Z,38.70
2017-07-06T10:38:17.027Z,37.93
2017-07-06T10:39:31.190Z,37.95
2017-07-06T10:40:33.098Z,38.15
2017-07-06T10:41:35.027Z,37.68
2017-07-06T10:42:36.940Z,37.19
2017-07-06T10:43:38.788Z,37.19
2017-07-06T10:44:40.609Z,37.31
2017-07-06T10:45:42.516Z,37.21
2017-07-06T10:46:44.402Z,37.02
2017-07-06T10:47:46.305Z,37.00
2017-07-06T10:49:00.488Z,37.10
2017-07-06T10:50:02.366Z,37.10
2017-07-06T10:51:04.246Z,36.71
2017-07-06T10:52:06.135Z,36.71
2017-07-06T10:53:08.000Z,37.19
2017-07-06T10:54:09.824Z,37.12
2017-07-06T10:55:11.753Z,36.92
2017-07-06T10:56:13.660Z,36.71
2017-07-06T10:57:15.581Z,37.00
2017-07-06T10:58:29.744Z,37.27
2017-07-06T10:59:31.634Z,37.18
2017-07-06T11:00:33.545Z,37.48
2017-07-06T11:01:35.434Z,37.68
2017-07-06T11:02:37.279Z,37.68
2017-07-06T11:03:39.095Z,37.46
2017-07-06T11:04:40.975Z,37.85
2017-07-06T11:05:42.886Z,38.42
2017-07-06T11:06:44.757Z,39.08
2017-07-06T11:07:58.922Z,39.86
2017-07-06T11:09:00.829Z,40.15
2017-07-06T11:10:02.734Z,40.06
2017-07-06T11:11:04.634Z,39.78
2017-07-06T11:12:06.461Z,40.34
2017-07-06T11:13:08.298Z,39.86
2017-07-06T11:14:10.182Z,39.76
2017-07-06T11:15:12.082Z,39.84
2017-07-06T11:16:13.987Z,40.11
2017-07-06T11:17:28.147Z,40.23
2017-07-06T11:18:30.020Z,40.23
2017-07-06T11:19:31.900Z,40.33
2017-07-06T11:20:33.865Z,40.62
2017-07-06T11:21:35.716Z,40.44
2017-07-06T11:22:37.558Z,40.73
2017-07-06T11:23:39.465Z,40.64
2017-07-06T11:24:41.344Z,40.25
2017-07-06T11:25:43.336Z,40.37
2017-07-06T11:26:57.605Z,40.27
2017-07-06T11:27:59.576Z,39.90
2017-07-06T11:29:01.446Z,39.72
2017-07-06T11:30:03.478Z,39.14
2017-07-06T11:31:05.398Z,38.75
2017-07-06T11:32:07.240Z,38.17
2017-07-06T11:33:09.674Z,38.17
2017-07-06T11:34:11.871Z,37.12
2017-07-06T11:35:13.793Z,37.50
2017-07-06T11:36:27.977Z,37.31
2017-07-06T11:37:29.883Z,37.04
2017-07-06T11:38:31.771Z,36.94
2017-07-06T11:39:33.679Z,36.57
2017-07-06T11:40:35.600Z,36.55
2017-07-06T11:41:37.483Z,36.94
2017-07-06T11:42:39.369Z,35.85
2017-07-06T11:43:41.250Z,36.71
2017-07-06T11:44:43.156Z,36.61
2017-07-06T11:45:57.345Z,37.12
2017-07-06T11:46:59.252Z,37.31
2017-07-06T11:48:01.138Z,37.21
2017-07-06T11:49:03.042Z,36.63
2017-07-06T11:50:04.893Z,36.65
2017-07-06T11:51:06.739Z,35.69
2017-07-06T11:52:08.646Z,36.00
2017-07-06T11:53:10.569Z,35.41
2017-07-06T11:54:12.445Z,35.04
2017-07-06T11:55:26.605Z,34.94
2017-07-06T11:56:28.491Z,34.96
2017-07-06T11:57:30.393Z,35.16
2017-07-06T11:58:32.278Z,35.06
2017-07-06T11:59:34.103Z,34.47
2017-07-06T12:00:35.914Z,34.18
2017-07-06T12:01:37.799Z,34.06
2017-07-06T12:02:39.705Z,34.45
2017-07-06T12:03:41.583Z,34.05
2017-07-06T12:04:55.746Z,34.99
2017-07-06T12:05:57.653Z,36.14
2017-07-06T12:06:59.558Z,36.51
2017-07-06T12:08:01.439Z,37.00
2017-07-06T12:09:03.291Z,37.10
2017-07-06T12:10:05.110Z,38.26
2017-07-06T12:11:07.021Z,38.36
2017-07-06T12:12:08.932Z,38.15
2017-07-06T12:13:10.832Z,38.05
2017-07-06T12:14:24.994Z,39.12
2017-07-06T12:15:26.902Z,38.91
2017-07-06T12:16:28.837Z,39.22
2017-07-06T12:17:30.743Z,39.31
2017-07-06T12:18:32.561Z,38.44
2017-07-06T12:19:34.407Z,38.81
2017-07-06T12:20:36.389Z,38.62
2017-07-06T12:21:38.316Z,39.78
2017-07-06T12:22:40.248Z,39.78
2017-07-06T12:23:54.426Z,39.20
2017-07-06T12:24:56.325Z,38.34
2017-07-06T12:25:58.206Z,37.77
2017-07-06T12:27:00.143Z,36.90
2017-07-06T12:28:01.954Z,36.92
2017-07-06T12:29:03.796Z,37.12
2017-07-06T12:30:05.705Z,37.41
2017-07-06T12:31:07.606Z,36.04
2017-07-06T12:32:09.489Z,36.14
2017-07-06T12:33:23.747Z,35.75
2017-07-06T12:34:25.653Z,35.85
2017-07-06T12:35:27.534Z,35.67
2017-07-06T12:36:29.416Z,35.96
2017-07-06T12:37:31.245Z,36.16
2017-07-06T12:38:33.082Z,36.45
2017-07-06T12:39:34.969Z,37.12
2017-07-06T12:40:36.891Z,37.29
2017-07-06T12:41:38.772Z,37.27
2017-07-06T12:42:52.981Z,37.08
2017-07-06T12:43:54.893Z,37.54
2017-07-06T12:44:56.802Z,37.45
2017-07-06T12:45:58.710Z,38.32
2017-07-06T12:47:00.559Z,38.52
2017-07-06T12:48:02.376Z,38.05
2017-07-06T12:49:04.290Z,38.54
2017-07-06T12:50:06.188Z,38.75
2017-07-06T12:51:08.095Z,38.36
2017-07-06T12:52:22.254Z,37.48
2017-07-06T12:53:24.137Z,37.00
2017-07-06T12:54:26.065Z,37.10
2017-07-06T12:55:27.972Z,37.37
2017-07-06T12:56:29.823Z,37.95
2017-07-06T12:57:31.647Z,38.24
2017-07-06T12:58:33.489Z,38.36
2017-07-06T12:59:35.313Z,38.05
2017-07-06T13:00:37.157Z,38.34
2017-07-06T13:01:51.397Z,38.54
2017-07-06T13:02:53.303Z,38.34
2017-07-06T13:03:55.289Z,37.08
2017-07-06T13:04:57.386Z,36.88
2017-07-06T13:05:59.465Z,37.29
2017-07-06T13:07:01.334Z,37.29
2017-07-06T13:08:03.241Z,37.41
2017-07-06T13:09:05.172Z,36.53
2017-07-06T13:10:07.076Z,36.45
2017-07-06T13:11:21.265Z,36.45
2017-07-06T13:12:23.278Z,35.77
2017-07-06T13:13:25.143Z,35.78
2017-07-06T13:14:27.028Z,35.69
2017-07-06T13:15:28.872Z,35.98
2017-07-06T13:16:30.686Z,35.67
2017-07-06T13:17:32.656Z,35.86
2017-07-06T13:18:34.638Z,36.06
2017-07-06T13:19:36.520Z,35.86
2017-07-06T13:20:50.887Z,36.35
2017-07-06T13:21:52.851Z,35.77
2017-07-06T13:22:54.733Z,35.18
2017-07-06T13:23:56.786Z,35.96
2017-07-06T13:24:58.696Z,36.14
2017-07-06T13:26:00.533Z,36.63
2017-07-06T13:27:02.420Z,36.32
2017-07-06T13:28:04.318Z,36.69
2017-07-06T13:29:06.231Z,36.88
2017-07-06T13:30:20.393Z,37.16
2017-07-06T13:31:22.272Z,37.52
2017-07-06T13:32:24.150Z,37.92
2017-07-06T13:33:26.027Z,38.32
2017-07-06T13:34:27.851Z,39.49